Time;durP1;ratioP1;P1;durP2;ratioP2;P2;SDS_P1;SDS_P2;PMS_P1;PMS_P2;Temp;Humidity;BMP_temperature;BMP_pressure;BME280_temperature;BME280_humidity;BME280_pressure;Samples;Min_cycle;Max_cycle;Signal;HPM_P1;HPM_P2
2020/02/13 00:09:51;;;;;;;5.5;2.8;;;;;;;;;;;;;
2020/02/13 00:12:26;;;;;;;4;1.9;;;;;;;;;;;;;
2020/02/13 00:14:16;;;;;;;3.5;1.8;;;;;;;;;;;;;
2020/02/13 00:26:22;;;;;;;3.8;1.7;;;;;;;;;;;;;
2020/02/13 00:33:45;;;;;;;3.2;1.5;;;;;;;;;;;;;
2020/02/13 00:37:11;;;;;;;3.5;1.5;;;;;;;;;;;;;
2020/02/13 00:38:53;;;;;;;4.2;2.1;;;;;;;;;;;;;
2020/02/13 00:44:23;;;;;;;6;2.8;;;;;;;;;;;;;
2020/02/13 00:46:42;;;;;;;5.4;3;;;;;;;;;;;;;
2020/02/13 00:49:07;;;;;;;6.1;2.9;;;;;;;;;;;;;
2020/02/13 00:51:43;;;;;;;5.8;2.8;;;;;;;;;;;;;
2020/02/13 00:54:03;;;;;;;3.9;1.8;;;;;;;;;;;;;
2020/02/13 00:56:30;;;;;;;9.9;4;;;;;;;;;;;;;
2020/02/13 01:09:35;;;;;;;5.4;2.4;;;;;;;;;;;;;
2020/02/13 01:11:04;;;;;;;5.2;2.9;;;;;;;;;;;;;
2020/02/13 01:13:34;;;;;;;5.2;3.2;;;;;;;;;;;;;
2020/02/13 01:16:14;;;;;;;5.2;3.1;;;;;;;;;;;;;
2020/02/13 01:20:48;;;;;;;4.3;2.5;;;;;;;;;;;;;
2020/02/13 01:28:20;;;;;;;2.2;1.4;;;;;;;;;;;;;
2020/02/13 01:30:55;;;;;;;2.8;1.5;;;;;;;;;;;;;
2020/02/13 01:35:54;;;;;;;3.1;1.8;;;;;;;;;;;;;
2020/02/13 01:38:11;;;;;;;3.5;1.7;;;;;;;;;;;;;
2020/02/13 01:40:42;;;;;;;3.6;2;;;;;;;;;;;;;
2020/02/13 01:43:06;;;;;;;5.4;2.6;;;;;;;;;;;;;
2020/02/13 01:45:42;;;;;;;5;3;;;;;;;;;;;;;
2020/02/13 01:48:22;;;;;;;4.9;3;;;;;;;;;;;;;
2020/02/13 01:50:39;;;;;;;5.4;2.4;;;;;;;;;;;;;
2020/02/13 01:53:05;;;;;;;5;2.4;;;;;;;;;;;;;
2020/02/13 01:55:39;;;;;;;4.5;2.4;;;;;;;;;;;;;
2020/02/13 01:58:05;;;;;;;2.8;2;;;;;;;;;;;;;
2020/02/13 02:00:43;;;;;;;4.7;2.1;;;;;;;;;;;;;
2020/02/13 02:03:10;;;;;;;3.4;1.9;;;;;;;;;;;;;
2020/02/13 02:05:43;;;;;;;3.8;2.2;;;;;;;;;;;;;
2020/02/13 02:08:21;;;;;;;5;2.3;;;;;;;;;;;;;
2020/02/13 02:10:58;;;;;;;3.9;2;;;;;;;;;;;;;
2020/02/13 02:13:02;;;;;;;4.2;2;;;;;;;;;;;;;
2020/02/13 02:15:55;;;;;;;3.4;2.2;;;;;;;;;;;;;
2020/02/13 02:21:07;;;;;;;3.7;2;;;;;;;;;;;;;
2020/02/13 02:26:27;;;;;;;3.6;2;;;;;;;;;;;;;
2020/02/13 02:27:53;;;;;;;3.2;2;;;;;;;;;;;;;
2020/02/13 02:32:57;;;;;;;5;2;;;;;;;;;;;;;
2020/02/13 02:35:57;;;;;;;3.4;2;;;;;;;;;;;;;
2020/02/13 02:37:49;;;;;;;4.2;2;;;;;;;;;;;;;
2020/02/13 02:40:08;;;;;;;5.4;2.5;;;;;;;;;;;;;
2020/02/13 02:44:23;;;;;;;5.4;2.9;;;;;;;;;;;;;
2020/02/13 02:48:07;;;;;;;3.8;2.2;;;;;;;;;;;;;
2020/02/13 02:52:40;;;;;;;3.6;1.9;;;;;;;;;;;;;
2020/02/13 02:57:31;;;;;;;2.9;1.8;;;;;;;;;;;;;
2020/02/13 03:00:18;;;;;;;2.9;1.5;;;;;;;;;;;;;
2020/02/13 03:02:31;;;;;;;2.9;1.7;;;;;;;;;;;;;
2020/02/13 03:04:47;;;;;;;3.6;1.8;;;;;;;;;;;;;
2020/02/13 03:07:22;;;;;;;2.9;1.7;;;;;;;;;;;;;
2020/02/13 03:09:51;;;;;;;3.9;1.5;;;;;;;;;;;;;
2020/02/13 03:12:16;;;;;;;2.3;1.4;;;;;;;;;;;;;
2020/02/13 03:14:40;;;;;;;2.4;1.5;;;;;;;;;;;;;
2020/02/13 03:17:10;;;;;;;3.4;1.7;;;;;;;;;;;;;
2020/02/13 03:19:41;;;;;;;3.2;1.5;;;;;;;;;;;;;
2020/02/13 03:22:18;;;;;;;2.8;1.3;;;;;;;;;;;;;
2020/02/13 03:24:31;;;;;;;4;1.5;;;;;;;;;;;;;
2020/02/13 03:27:05;;;;;;;3.6;1.7;;;;;;;;;;;;;
2020/02/13 03:29:31;;;;;;;5.1;1.5;;;;;;;;;;;;;
2020/02/13 03:31:58;;;;;;;5.1;1.7;;;;;;;;;;;;;
2020/02/13 03:34:22;;;;;;;4.5;1.9;;;;;;;;;;;;;
2020/02/13 03:36:51;;;;;;;4.6;2.2;;;;;;;;;;;;;
2020/02/13 03:39:16;;;;;;;6.8;3.3;;;;;;;;;;;;;
2020/02/13 03:41:51;;;;;;;7.5;3.3;;;;;;;;;;;;;
2020/02/13 03:44:22;;;;;;;6;2.6;;;;;;;;;;;;;
2020/02/13 03:46:47;;;;;;;5;1.8;;;;;;;;;;;;;
2020/02/13 03:49:17;;;;;;;4;1.3;;;;;;;;;;;;;
2020/02/13 03:51:43;;;;;;;2.3;1.2;;;;;;;;;;;;;
2020/02/13 03:54:19;;;;;;;2.6;1.5;;;;;;;;;;;;;
2020/02/13 03:56:57;;;;;;;2.2;1.1;;;;;;;;;;;;;
2020/02/13 03:59:28;;;;;;;2.1;1;;;;;;;;;;;;;
2020/02/13 04:02:53;;;;;;;4.2;1.4;;;;;;;-0.31;87.11328;939.1717;;;;
2020/02/13 04:06:18;;;;;;;20.1;5.9;;;;;;;-0.38;87.52246;939.1738;;;;
2020/02/13 04:08:19;;;;;;;15.8;4.6;;;;;;;-0.39;88.06445;939.1307;;;;
2020/02/13 04:10:48;;;;;;;8;2.7;;;;;;;-0.34;87.95313;939.1149;;;;
2020/02/13 04:13:14;;;;;;;4.2;2.3;;;;;;;-0.22;87.22266;939.0897;;;;
2020/02/13 04:15:39;;;;;;;4.3;1.8;;;;;;;-0.29;86.18164;939.0327;;;;
2020/02/13 04:18:09;;;;;;;3.2;1.9;;;;;;;-0.35;86.08105;939.0139;;;;
2020/02/13 04:23:27;;;;;;;4.5;2.4;;;;;;;-0.58;86.99219;938.8948;;;;
2020/02/13 04:25:55;;;;;;;5.2;2;;;;;;;-0.54;87.01074;938.89;;;;
2020/02/13 04:28:33;;;;;;;3.6;1.9;;;;;;;-0.36;86.56934;938.7845;;;;
2020/02/13 04:31:25;;;;;;;2.5;1.7;;;;;;;-0.3;86.11328;938.8334;;;;
2020/02/13 04:34:04;;;;;;;4.2;2.1;;;;;;;-0.18;85.48047;938.8211;;;;
2020/02/13 04:36:42;;;;;;;4.6;2.5;;;;;;;-0.26;85.0625;938.8417;;;;
2020/02/13 04:39:12;;;;;;;5.8;2.4;;;;;;;-0.41;85.49023;938.7924;;;;
2020/02/13 04:41:45;;;;;;;5.5;3.2;;;;;;;-0.51;85.7168;938.7414;;;;
2020/02/13 04:44:10;;;;;;;3.6;2.1;;;;;;;-0.7;86.44336;938.7453;;;;
2020/02/13 04:46:47;;;;;;;3;1.9;;;;;;;-0.66;86.75293;938.6833;;;;
2020/02/13 04:49:14;;;;;;;3.8;1.4;;;;;;;-0.68;86.16895;938.6663;;;;
2020/02/13 04:51:48;;;;;;;3;1.2;;;;;;;-0.72;86.21582;938.6627;;;;
2020/02/13 04:54:26;;;;;;;2.9;1.3;;;;;;;-0.72;86.12793;938.6583;;;;
2020/02/13 04:56:49;;;;;;;4;1.2;;;;;;;-0.77;86.12988;938.6231;;;;
2020/02/13 04:59:15;;;;;;;8.7;5.4;;;;;;;-0.72;85.99512;938.5137;;;;
2020/02/13 05:01:48;;;;;;;4.4;2.3;;;;;;;-0.66;85.89453;938.5527;;;;
2020/02/13 05:04:27;;;;;;;4;2.5;;;;;;;-0.64;86.05371;938.5208;;;;
2020/02/13 05:07:17;;;;;;;2.5;1.6;;;;;;;-0.63;85.64648;938.4728;;;;
2020/02/13 05:09:43;;;;;;;4.1;2.2;;;;;;;-0.64;85.77637;938.5442;;;;
2020/02/13 05:12:20;;;;;;;6.2;2.8;;;;;;;-0.56;85.58301;938.383;;;;
2020/02/13 05:14:57;;;;;;;6;3.3;;;;;;;-0.51;85.24707;938.3621;;;;
2020/02/13 05:24:16;;;;;;;6.8;4;;;;;;;-0.61;85.58301;938.233;;;;
2020/02/13 05:34:53;;;;;;;8.2;4.7;;;;;;;-0.63;85.40137;938.2045;;;;
2020/02/13 05:41:56;;;;;;;7.6;4.5;;;;;;;-0.5;84.03613;938.1746;;;;
2020/02/13 05:47:17;;;;;;;6.9;4.5;;;;;;;-0.7;84.45313;938.2019;;;;
2020/02/13 05:55:17;;;;;;;6;3;;;;;;;-0.64;85.06445;938.1869;;;;
2020/02/13 05:58:00;;;;;;;4.6;3;;;;;;;-0.54;84.2832;938.0005;;;;
2020/02/13 06:00:29;;;;;;;11.7;5.9;;;;;;;-0.66;85.00488;938.1867;;;;
2020/02/13 06:03:08;;;;;;;9.8;4.9;;;;;;;-0.75;85.09766;938.1564;;;;
2020/02/13 06:08:02;;;;;;;15.3;8.7;;;;;;;-0.68;84.48926;938.2786;;;;
2020/02/13 06:11:08;;;;;;;13.4;7.5;;;;;;;-0.68;84.34668;938.2907;;;;
2020/02/13 06:14:16;;;;;;;11;6.3;;;;;;;-0.84;84.60156;938.3006;;;;
2020/02/13 06:24:13;;;;;;;7.4;4.9;;;;;;;-1.03;85.29688;938.2079;;;;
2020/02/13 06:29:15;;;;;;;5.5;4;;;;;;;-0.79;85.25684;938.2144;;;;
2020/02/13 06:32:13;;;;;;;5.5;3.8;;;;;;;-0.65;85.04199;938.192;;;;
2020/02/13 06:37:07;;;;;;;8.4;5.4;;;;;;;-0.42;83.65234;938.1652;;;;
2020/02/13 06:39:49;;;;;;;19.8;8.6;;;;;;;-0.42;83.55176;938.1795;;;;
2020/02/13 06:46:18;;;;;;;15.3;6.8;;;;;;;-0.49;84.32715;938.0625;;;;
2020/02/13 06:51:04;;;;;;;24.4;11.3;;;;;;;-0.25;83.41895;938.0037;;;;
2020/02/13 07:06:49;;;;;;;13.7;9.3;;;;;;;-0.2;82.7041;937.92;;;;
2020/02/13 07:09:20;;;;;;;7.8;5.8;;;;;;;-0.08;82.25879;937.9243;;;;
2020/02/13 07:13:24;;;;;;;11.9;9.2;;;;;;;-0.14;82.51563;937.8809;;;;
2020/02/13 07:14:39;;;;;;;8.2;5.5;;;;;;;-0.12;82.63086;937.8122;;;;
2020/02/13 07:17:13;;;;;;;9.8;6.1;;;;;;;0.1;81.68359;937.7292;;;;
2020/02/13 07:19:56;;;;;;;10.9;6.7;;;;;;;0.23;81.41602;937.7816;;;;
2020/02/13 07:22:29;;;;;;;13.1;7.7;;;;;;;0.37;81.32324;937.7961;;;;
2020/02/13 07:25:23;;;;;;;16.8;10.4;;;;;;;0.39;80.64648;937.6246;;;;
2020/02/13 07:29:48;;;;;;;18;10.6;;;;;;;0.54;80.73145;937.6679;;;;
2020/02/13 07:30:37;;;;;;;18.6;10.4;;;;;;;0.57;79.68848;937.6135;;;;
2020/02/13 07:33:35;;;;;;;14.6;11.3;;;;;;;0.43;79.98438;937.6534;;;;
2020/02/13 07:41:45;;;;;;;10.9;7.3;;;;;;;0.75;79.34277;937.4964;;;;
2020/02/13 07:47:25;;;;;;;5.6;3.9;;;;;;;0.88;79.16602;937.4666;;;;
2020/02/13 07:50:19;;;;;;;4.4;2.5;;;;;;;1.01;77.97266;937.424;;;;
2020/02/13 07:57:10;;;;;;;7.1;3.6;;;;;;;1.9;74.69043;937.2213;;;;
2020/02/13 07:59:50;;;;;;;6.7;3.9;;;;;;;2.2;73.36621;937.2191;;;;
2020/02/13 08:05:38;;;;;;;5.4;3.8;;;;;;;2.54;71.09473;937.0394;;;;
2020/02/13 08:10:33;;;;;;;4.2;3.3;;;;;;;2.99;70.12695;936.9989;;;;
2020/02/13 08:16:01;;;;;;;3.9;2.6;;;;;;;3.34;67.53516;936.8109;;;;
2020/02/13 08:19:14;;;;;;;9;5;;;;;;;4.21;65.84961;936.7861;;;;
2020/02/13 08:21:24;;;;;;;7.7;4.7;;;;;;;4.88;63.44043;936.8026;;;;
2020/02/13 08:26:51;;;;;;;4.9;3.2;;;;;;;6.72;56.19824;936.6602;;;;
2020/02/13 08:30:16;;;;;;;9.4;6.1;;;;;;;6.17;56.65723;936.764;;;;
2020/02/13 08:34:54;;;;;;;7.5;5.6;;;;;;;6.75;55.5127;936.5991;;;;
2020/02/13 08:37:08;;;;;;;5.6;3.2;;;;;;;7.28;51.87695;936.5876;;;;
2020/02/13 08:39:37;;;;;;;6.9;4.2;;;;;;;8.67;49.71387;936.4832;;;;
2020/02/13 08:42:26;;;;;;;7.7;4.6;;;;;;;10.14;46.80371;936.4341;;;;
2020/02/13 08:45:34;;;;;;;5.1;3;;;;;;;10.41;43.17969;936.4048;;;;
2020/02/13 08:47:46;;;;;;;5;3.4;;;;;;;9.05;46.40039;936.4083;;;;
2020/02/13 08:50:56;;;;;;;6.3;3.5;;;;;;;7.34;50.37695;936.3376;;;;
2020/02/13 08:53:35;;;;;;;6.6;3.9;;;;;;;7.04;51.34863;936.1891;;;;
2020/02/13 08:55:56;;;;;;;5.8;3.7;;;;;;;6.13;54.21191;936.2188;;;;
2020/02/13 08:58:19;;;;;;;6.3;3.6;;;;;;;5.47;57.08496;936.1639;;;;
2020/02/13 09:01:02;;;;;;;7.5;3.9;;;;;;;5.5;58.01367;935.9902;;;;
2020/02/13 09:03:46;;;;;;;5.7;2.7;;;;;;;5.55;56.62109;935.926;;;;
2020/02/13 09:08:52;;;;;;;4.6;2.2;;;;;;;5.13;57.15234;935.9581;;;;
2020/02/13 09:14:08;;;;;;;2.4;1;;;;;;;4.56;56.60254;935.8505;;;;
2020/02/13 09:17:03;;;;;;;2.6;1.7;;;;;;;4.89;57.77539;935.8666;;;;
2020/02/13 09:24:18;;;;;;;8.3;3.3;;;;;;;4.71;59.34863;935.728;;;;
2020/02/13 09:31:51;;;;;;;6.3;3;;;;;;;5.74;57.3252;935.546;;;;
2020/02/13 09:37:53;;;;;;;4.9;1.5;;;;;;;7.2;50.00879;935.3434;;;;
2020/02/13 09:40:28;;;;;;;3.7;1.6;;;;;;;7.6;49.69238;935.3133;;;;
2020/02/13 09:43:02;;;;;;;5.4;1.7;;;;;;;7.97;49.00781;935.3296;;;;
2020/02/13 09:51:39;;;;;;;3.9;1.5;;;;;;;8.74;45.43457;935.0616;;;;
2020/02/13 09:54:38;;;;;;;4.4;1.2;;;;;;;8.22;45.16504;935.0347;;;;
2020/02/13 09:56:51;;;;;;;5.3;1.4;;;;;;;8.18;46.01172;934.9989;;;;
2020/02/13 10:02:14;;;;;;;4.2;1.1;;;;;;;9.08;44.01465;934.8504;;;;
2020/02/13 10:04:44;;;;;;;8.3;1.9;;;;;;;9.22;44.72363;934.8162;;;;
2020/02/13 10:07:48;;;;;;;3.5;1.1;;;;;;;9.01;46.08887;934.7417;;;;
2020/02/13 10:16:11;;;;;;;2.7;0.8;;;;;;;9.43;43.41309;934.6196;;;;
2020/02/13 10:18:32;;;;;;;4.2;0.9;;;;;;;9.29;42.15723;934.553;;;;
2020/02/13 10:26:34;;;;;;;5.2;1;;;;;;;8.05;43.86426;934.4645;;;;
2020/02/13 10:30:00;;;;;;;8.1;2.3;;;;;;;8.02;44.40625;934.3666;;;;
2020/02/13 10:33:16;;;;;;;3.6;0.9;;;;;;;7.91;44.80273;934.2444;;;;
2020/02/13 10:35:17;;;;;;;4;1;;;;;;;8.26;43.625;934.1603;;;;
2020/02/13 10:37:46;;;;;;;22.8;1.8;;;;;;;9.22;45.55469;934.1721;;;;
2020/02/13 10:42:50;;;;;;;15.1;1.8;;;;;;;10.01;39.0918;933.9542;;;;
2020/02/13 10:45:04;;;;;;;16.4;1.8;;;;;;;10.08;40.85352;933.9095;;;;
2020/02/13 10:47:32;;;;;;;1.1;0.6;;;;;;;9.83;38.02637;933.7618;;;;
2020/02/13 10:50:01;;;;;;;9.9;1.2;;;;;;;10.09;38.57324;933.7083;;;;
2020/02/13 10:52:27;;;;;;;9;1.5;;;;;;;10.02;37.33594;933.6603;;;;
2020/02/13 10:54:57;;;;;;;3.3;1.1;;;;;;;10.22;38.97363;933.5486;;;;
2020/02/13 10:57:37;;;;;;;2.7;0.9;;;;;;;10.21;39.37207;933.5343;;;;
2020/02/13 11:00:06;;;;;;;2.2;1;;;;;;;9.38;39.58203;933.4391;;;;
2020/02/13 11:02:32;;;;;;;5.3;1.2;;;;;;;9.45;41.92285;933.3284;;;;
2020/02/13 11:05:23;;;;;;;9.7;1.2;;;;;;;9.67;40.06348;933.4316;;;;
2020/02/13 11:07:55;;;;;;;8.7;1.6;;;;;;;10.04;41.2041;933.3342;;;;
2020/02/13 11:10:39;;;;;;;3.2;0.9;;;;;;;9.97;40.60449;933.1707;;;;
2020/02/13 11:13:14;;;;;;;6.8;1.8;;;;;;;10.17;41.70703;933.1772;;;;
2020/02/13 11:16:00;;;;;;;11.2;1.6;;;;;;;10.57;42.49902;933.1174;;;;
2020/02/13 11:18:37;;;;;;;2.5;0.9;;;;;;;10.9;37.57324;933.0464;;;;
2020/02/13 11:21:15;;;;;;;13;1.5;;;;;;;10.93;41.77051;932.9771;;;;
2020/02/13 11:23:43;;;;;;;15;1.8;;;;;;;10.85;39.01855;932.8777;;;;
2020/02/13 11:26:16;;;;;;;6.6;2.8;;;;;;;10.95;43.98828;932.8855;;;;
2020/02/13 11:28:57;;;;;;;8.5;1.4;;;;;;;10.82;47.4707;932.872;;;;
2020/02/13 11:31:32;;;;;;;4.4;1.1;;;;;;;10.9;48.65625;932.829;;;;
2020/02/13 11:34:16;;;;;;;14.2;9.3;;;;;;;11.96;47.17285;932.6738;;;;
2020/02/13 11:36:44;;;;;;;12.3;7.7;;;;;;;13.72;43.02734;932.6484;;;;
2020/02/13 11:39:13;;;;;;;10.3;4.1;;;;;;;16.02;37.68164;932.5833;;;;
2020/02/13 11:41:54;;;;;;;11.5;6.2;;;;;;;16.9;34.65234;932.488;;;;
2020/02/13 11:44:36;;;;;;;4.7;2.5;;;;;;;18.14;27.74512;932.415;;;;
2020/02/13 11:47:20;;;;;;;3.7;1.6;;;;;;;19.27;25.59082;932.3344;;;;
2020/02/13 11:49:51;;;;;;;4;1.6;;;;;;;20.71;23.78125;932.1699;;;;
2020/02/13 11:52:21;;;;;;;11.2;6.1;;;;;;;21.03;25.16602;932.1731;;;;
2020/02/13 11:54:50;;;;;;;3.2;2.1;;;;;;;21.73;24.75;932.0557;;;;
2020/02/13 11:57:20;;;;;;;4.9;1.1;;;;;;;22.07;25.87109;932.0188;;;;
2020/02/13 12:00:33;;;;;;;2.1;0.9;;;;;;;21.79;25.32715;932.0076;;;;
2020/02/13 12:03:26;;;;;;;16.7;2.3;;;;;;;21.62;25.07129;931.976;;;;
2020/02/13 12:05:42;;;;;;;5.9;1;;;;;;;21.74;23.75488;931.8575;;;;
2020/02/13 12:08:07;;;;;;;3.8;1.2;;;;;;;20.1;25.08984;931.8323;;;;
2020/02/13 12:10:36;;;;;;;3.4;2;;;;;;;19.89;25.3584;931.7216;;;;
2020/02/13 12:13:02;;;;;;;3.3;1.7;;;;;;;20.13;23.43457;931.7672;;;;
2020/02/13 12:15:44;;;;;;;4.1;1.8;;;;;;;19.73;23.8916;931.6861;;;;
2020/02/13 12:18:07;;;;;;;14.3;2.4;;;;;;;20.77;25.74805;931.6747;;;;
2020/02/13 12:22:18;;;;;;;4.7;1.3;;;;;;;21.29;25.94238;931.5733;;;;
2020/02/13 12:24:13;;;;;;;3.4;0.9;;;;;;;20.12;24.8584;931.4731;;;;
2020/02/13 12:27:02;;;;;;;3.5;2.2;;;;;;;19.62;23.45508;931.4361;;;;
2020/02/13 12:29:37;;;;;;;1.5;0.7;;;;;;;18.43;26.29785;931.3141;;;;
2020/02/13 12:32:17;;;;;;;2.3;1.2;;;;;;;18.13;27.1748;931.305;;;;
2020/02/13 12:35:11;;;;;;;1.8;1;;;;;;;15.48;28.71973;931.1484;;;;
2020/02/13 12:37:18;;;;;;;2.9;1;;;;;;;15.69;30.44336;931.1189;;;;
2020/02/13 12:39:49;;;;;;;2.4;0.8;;;;;;;15.14;28.54785;931.024;;;;
2020/02/13 12:42:26;;;;;;;5.6;0.8;;;;;;;17.07;27.3877;930.9917;;;;
2020/02/13 12:44:54;;;;;;;4.6;0.8;;;;;;;18.6;25.86621;930.9313;;;;
2020/02/13 12:47:16;;;;;;;1.5;0.6;;;;;;;17.72;25.57031;930.7845;;;;
2020/02/13 12:49:44;;;;;;;8.2;1.2;;;;;;;17.62;26.34277;930.705;;;;
2020/02/13 12:52:26;;;;;;;6.7;1.3;;;;;;;18.21;26.81934;930.7159;;;;
2020/02/13 12:58:03;;;;;;;14.8;7.1;;;;;;;19.22;25.99512;930.4582;;;;
2020/02/13 13:00:32;;;;;;;48.3;24.5;;;;;;;20.17;25.16504;930.4429;;;;
2020/02/13 13:02:55;;;;;;;13.3;8.8;;;;;;;20.84;24.61816;930.378;;;;
2020/02/13 13:05:41;;;;;;;3.7;1.7;;;;;;;19.6;23.41797;930.3123;;;;
2020/02/13 13:08:22;;;;;;;3.1;0.8;;;;;;;18.59;24.24805;930.2623;;;;
2020/02/13 13:10:56;;;;;;;61.9;44.3;;;;;;;17.74;25.22363;930.2009;;;;
2020/02/13 13:13:39;;;;;;;3.8;0.9;;;;;;;17.52;25.90723;930.1337;;;;
2020/02/13 13:16:11;;;;;;;1.2;0.6;;;;;;;16.94;25.51367;930.0066;;;;
2020/02/13 13:18:56;;;;;;;3.1;0.8;;;;;;;16.61;28.36523;930.0174;;;;
2020/02/13 13:21:55;;;;;;;2.7;0.8;;;;;;;17.53;26.05859;929.9836;;;;
2020/02/13 13:24:06;;;;;;;4.4;0.7;;;;;;;17.3;26.60156;929.7974;;;;
2020/02/13 13:26:39;;;;;;;6;0.8;;;;;;;17.3;26.69434;929.6322;;;;
2020/02/13 13:29:08;;;;;;;11.6;4.9;;;;;;;17.04;28.85742;929.5592;;;;
2020/02/13 13:31:51;;;;;;;9.9;3;;;;;;;17.25;26.2041;929.5527;;;;
2020/02/13 13:34:33;;;;;;;1.9;0.7;;;;;;;16.54;25.88379;929.4453;;;;
2020/02/13 13:37:04;;;;;;;1;0.6;;;;;;;16.2;27.79492;929.3906;;;;
2020/02/13 13:39:37;;;;;;;1.8;0.5;;;;;;;15.69;29.12695;929.4158;;;;
2020/02/13 13:42:03;;;;;;;4.3;0.8;;;;;;;16.21;26.75488;929.3918;;;;
2020/02/13 13:44:36;;;;;;;2.5;0.7;;;;;;;16.09;30.91113;929.317;;;;
2020/02/13 13:47:13;;;;;;;1.6;0.7;;;;;;;15.34;31.91992;929.2828;;;;
2020/02/13 13:49:48;;;;;;;7.4;1.3;;;;;;;15.6;33.33691;929.1705;;;;
2020/02/13 13:52:21;;;;;;;3.5;0.8;;;;;;;15.66;29.97949;929.0488;;;;
2020/02/13 13:54:59;;;;;;;5.8;1.2;;;;;;;15.6;31.4541;928.9288;;;;
2020/02/13 13:57:54;;;;;;;3.8;0.9;;;;;;;15;32.28711;928.8313;;;;
2020/02/13 14:00:31;;;;;;;7;0.9;;;;;;;14.61;31.68262;928.8714;;;;
2020/02/13 14:03:12;;;;;;;4.4;1.1;;;;;;;15.38;32.38477;928.7789;;;;
2020/02/13 14:06:19;;;;;;;8.9;1.6;;;;;;;15.07;30.1123;928.6912;;;;
2020/02/13 14:08:38;;;;;;;9.9;1.7;;;;;;;15.51;31.52832;928.6556;;;;
2020/02/13 14:11:25;;;;;;;4.3;1.4;;;;;;;15.54;30.31836;928.7037;;;;
2020/02/13 14:13:56;;;;;;;5.8;1.2;;;;;;;16.04;29.18457;928.676;;;;
2020/02/13 14:16:38;;;;;;;6.6;1.3;;;;;;;16.01;27.4248;928.5087;;;;
2020/02/13 14:19:26;;;;;;;13.3;1.7;;;;;;;16.37;28.77832;928.4646;;;;
2020/02/13 14:22:10;;;;;;;6.7;1.2;;;;;;;16.32;27.39746;928.4155;;;;
2020/02/13 14:24:31;;;;;;;6.2;1.4;;;;;;;15.59;29.51172;928.3475;;;;
2020/02/13 14:27:12;;;;;;;8.7;1.8;;;;;;;15.23;30.23828;928.3879;;;;
2020/02/13 14:30:26;;;;;;;4.6;1.2;;;;;;;15.1;28.38281;928.2858;;;;
2020/02/13 14:32:59;;;;;;;15.8;2.5;;;;;;;15.29;29.78125;928.1907;;;;
2020/02/13 14:35:33;;;;;;;6.7;2.3;;;;;;;14.88;29.44238;928.2576;;;;
2020/02/13 14:38:14;;;;;;;13.1;2.7;;;;;;;14.4;32.13965;928.1664;;;;
2020/02/13 14:41:03;;;;;;;10.6;2.1;;;;;;;14.18;30.69531;928.0867;;;;
2020/02/13 14:43:42;;;;;;;8;1.8;;;;;;;13.23;32.17969;928.1316;;;;
2020/02/13 14:46:09;;;;;;;6.3;1.9;;;;;;;12.8;33.42188;928.1046;;;;
2020/02/13 14:48:55;;;;;;;4.8;1.7;;;;;;;12.66;33.98535;928.1394;;;;
2020/02/13 14:51:02;;;;;;;4.9;1.5;;;;;;;12.19;36.69824;928.1795;;;;
2020/02/13 14:53:36;;;;;;;4.4;1.4;;;;;;;12.15;36.89063;928.0955;;;;
2020/02/13 14:56:04;;;;;;;4.7;1.6;;;;;;;12.35;33.49023;927.9869;;;;
2020/02/13 14:58:38;;;;;;;9.5;2.1;;;;;;;12.52;42.15234;928.1078;;;;
2020/02/13 15:01:11;;;;;;;6.5;2.3;;;;;;;12.63;44.08984;928.1407;;;;
2020/02/13 15:03:36;;;;;;;4.5;1.7;;;;;;;12.75;44.19336;927.9392;;;;
2020/02/13 15:06:20;;;;;;;4;1.2;;;;;;;12.73;45.12109;927.9595;;;;
2020/02/13 15:09:03;;;;;;;3.1;1.3;;;;;;;12.26;43.71973;928.0536;;;;
2020/02/13 15:11:30;;;;;;;10.8;2.2;;;;;;;11.87;45.22754;928.0389;;;;
2020/02/13 15:14:02;;;;;;;12.5;2.6;;;;;;;11.77;48.02246;928.0179;;;;
2020/02/13 15:16:30;;;;;;;10.1;1.9;;;;;;;11.58;50.17578;928.1322;;;;
2020/02/13 15:19:06;;;;;;;14.9;2.5;;;;;;;11.47;49.90039;928.1685;;;;
2020/02/13 15:21:33;;;;;;;7.1;2.7;;;;;;;11.24;50.03418;928.0789;;;;
2020/02/13 15:24:32;;;;;;;5.1;1.3;;;;;;;10.74;53.3457;928.2377;;;;
2020/02/13 15:27:16;;;;;;;8.3;1.6;;;;;;;10.09;55.27148;928.1834;;;;
2020/02/13 15:29:44;;;;;;;6.3;2.6;;;;;;;9.98;56.53613;928.2687;;;;
2020/02/13 15:32:21;;;;;;;6.3;2.8;;;;;;;9.84;56.79102;928.356;;;;
2020/02/13 15:34:48;;;;;;;8.9;2.2;;;;;;;9.75;56.76758;928.4347;;;;
2020/02/13 15:37:13;;;;;;;8;2.8;;;;;;;9.74;56.86914;928.3267;;;;
2020/02/13 15:39:37;;;;;;;11.1;5.7;;;;;;;9.75;56.16406;928.3401;;;;
2020/02/13 15:43:34;;;;;;;12.1;3.5;;;;;;;9.57;59.18164;928.2181;;;;
2020/02/13 15:46:13;;;;;;;9.6;2.6;;;;;;;9.52;58.85547;928.0728;;;;
2020/02/13 15:49:00;;;;;;;8.9;2.1;;;;;;;9.18;59.89063;928.07;;;;
2020/02/13 15:51:32;;;;;;;10.3;2;;;;;;;8.94;59.28809;928.0295;;;;
2020/02/13 15:54:05;;;;;;;6.6;2.7;;;;;;;8.54;55.39355;927.9744;;;;
2020/02/13 15:56:50;;;;;;;5.4;2.2;;;;;;;8.54;52.15332;927.8007;;;;
2020/02/13 15:59:20;;;;;;;3.6;1.8;;;;;;;8.39;51.14746;927.5767;;;;
2020/02/13 16:01:52;;;;;;;15.4;2.8;;;;;;;8.56;50.93945;927.6959;;;;
2020/02/13 16:04:37;;;;;;;7;1.8;;;;;;;8.74;52.68848;927.67;;;;
2020/02/13 16:07:20;;;;;;;14.8;4.4;;;;;;;8.79;54.79883;927.6365;;;;
2020/02/13 16:09:44;;;;;;;14.7;4.3;;;;;;;8.76;55.16016;927.6128;;;;
2020/02/13 16:12:14;;;;;;;9.1;4.6;;;;;;;8.79;55.66309;927.5477;;;;
2020/02/13 16:14:56;;;;;;;32;4.8;;;;;;;8.78;54.67188;927.5453;;;;
2020/02/13 16:17:25;;;;;;;10.3;4.4;;;;;;;8.71;54.7666;927.3454;;;;
2020/02/13 16:19:54;;;;;;;9.2;3.2;;;;;;;8.59;50.86328;927.2548;;;;
2020/02/13 16:22:50;;;;;;;10.5;4.7;;;;;;;8.43;53.08301;927.1939;;;;
2020/02/13 16:25:06;;;;;;;7.3;2.5;;;;;;;8.16;54.85547;927.2802;;;;
2020/02/13 16:27:46;;;;;;;5.8;2;;;;;;;8.23;53.53711;927.2084;;;;
2020/02/13 16:30:19;;;;;;;8.2;2.4;;;;;;;8.34;49.91406;927.2817;;;;
2020/02/13 16:32:51;;;;;;;6.8;2;;;;;;;8.45;52.92773;927.3865;;;;
2020/02/13 16:35:38;;;;;;;10.6;2.5;;;;;;;8.59;51.20508;927.4698;;;;
2020/02/13 16:38:25;;;;;;;11.4;2.4;;;;;;;8.79;50.29492;927.3524;;;;
2020/02/13 16:40:49;;;;;;;26.5;7.5;;;;;;;8.69;53.92285;927.4604;;;;
2020/02/13 16:43:33;;;;;;;8.5;2.4;;;;;;;8.49;47.55664;927.6072;;;;
2020/02/13 16:46:12;;;;;;;8.3;2.3;;;;;;;8.63;44.91211;927.6724;;;;
2020/02/13 16:48:29;;;;;;;13.1;2.8;;;;;;;8.73;46.13867;927.885;;;;
2020/02/13 16:51:21;;;;;;;8.8;3.7;;;;;;;8.86;42.77441;928.0551;;;;
2020/02/13 16:53:43;;;;;;;14.4;4.3;;;;;;;9.03;45.15918;928.4537;;;;
2020/02/13 16:56:35;;;;;;;12.5;3.9;;;;;;;8.84;46.36719;928.6559;;;;
2020/02/13 16:59:11;;;;;;;12.8;4.1;;;;;;;8.77;48.59863;928.4413;;;;
2020/02/13 17:01:53;;;;;;;5.7;2.9;;;;;;;8.91;47.69336;928.6044;;;;
2020/02/13 17:04:54;;;;;;;4;1.9;;;;;;;8.62;51.99219;928.8992;;;;
2020/02/13 17:07:19;;;;;;;3.4;1;;;;;;;8.57;55.92969;928.6719;;;;
2020/02/13 17:09:53;;;;;;;1.3;0.7;;;;;;;8.53;53.91406;928.3228;;;;
2020/02/13 17:12:39;;;;;;;3.5;0.9;;;;;;;8.62;55.74414;928.3365;;;;
2020/02/13 17:15:19;;;;;;;3.1;0.8;;;;;;;8.64;50.7793;928.0192;;;;
2020/02/13 17:18:20;;;;;;;1.7;1.2;;;;;;;8.86;52.44141;927.8447;;;;
2020/02/13 17:20:23;;;;;;;4.6;2.1;;;;;;;8.79;52.05762;927.6524;;;;
2020/02/13 17:23:06;;;;;;;6.5;2.6;;;;;;;8.9;53.1748;927.7249;;;;
2020/02/13 17:25:40;;;;;;;4.1;1.6;;;;;;;8.93;57.91016;927.5803;;;;
2020/02/13 17:28:04;;;;;;;7;4.1;;;;;;;8.93;60.11719;927.4533;;;;
2020/02/13 17:30:47;;;;;;;5.3;2.2;;;;;;;8.86;60.04004;927.3978;;;;
2020/02/13 17:33:11;;;;;;;4.6;1.8;;;;;;;8.53;59.67676;927.3611;;;;
2020/02/13 17:35:42;;;;;;;4.5;2;;;;;;;8.51;61.08203;927.3192;;;;
2020/02/13 17:38:23;;;;;;;20;16.5;;;;;;;8.43;60.34375;927.2042;;;;
2020/02/13 17:41:00;;;;;;;9.9;5.6;;;;;;;8.42;58.29688;927.0083;;;;
2020/02/13 17:43:45;;;;;;;5.4;3.2;;;;;;;8.35;61.17285;926.966;;;;
2020/02/13 17:46:32;;;;;;;4.5;2.6;;;;;;;8.02;63.34961;926.9052;;;;
2020/02/13 17:49:22;;;;;;;3.8;2.1;;;;;;;7.57;65.23535;927.0178;;;;
2020/02/13 17:51:30;;;;;;;3.4;1.8;;;;;;;7.2;66.84277;927.0684;;;;
2020/02/13 17:54:04;;;;;;;4.7;2;;;;;;;7.06;67.06152;927.1106;;;;
2020/02/13 17:56:47;;;;;;;5;2.3;;;;;;;6.94;64.69727;927.1841;;;;
2020/02/13 17:59:38;;;;;;;4.7;2.4;;;;;;;6.96;65.04102;926.9548;;;;
2020/02/13 18:02:09;;;;;;;6.3;2.9;;;;;;;6.88;64.9043;926.8365;;;;
2020/02/13 18:04:44;;;;;;;4.6;2.7;;;;;;;6.94;64.68652;926.8629;;;;
2020/02/13 18:07:15;;;;;;;7.5;3.4;;;;;;;7.09;64.32324;926.8954;;;;
2020/02/13 18:09:49;;;;;;;5.7;2.7;;;;;;;7.11;62.75293;926.9003;;;;
2020/02/13 18:12:15;;;;;;;3.8;2.7;;;;;;;7.15;64.89844;926.9336;;;;
2020/02/13 18:14:54;;;;;;;4.9;2.6;;;;;;;6.88;64.89355;926.9346;;;;
2020/02/13 18:17:29;;;;;;;6;3.1;;;;;;;6.81;63.77344;926.8766;;;;
2020/02/13 18:19:52;;;;;;;4;2.5;;;;;;;6.68;65.48535;927.0725;;;;
2020/02/13 18:22:23;;;;;;;5.4;3.6;;;;;;;6.57;64.6875;927.1396;;;;
2020/02/13 18:24:59;;;;;;;8.7;5.4;;;;;;;6.57;65.33203;927.1064;;;;
2020/02/13 18:27:40;;;;;;;5.9;3.9;;;;;;;6.23;66.00293;927.0991;;;;
2020/02/13 18:30:13;;;;;;;6.2;3.9;;;;;;;6.19;65.25098;927.1387;;;;
2020/02/13 18:32:39;;;;;;;5.2;3.8;;;;;;;6.23;65.7666;927.1418;;;;
2020/02/13 18:35:27;;;;;;;10.1;4.5;;;;;;;6.33;65.98438;927.0729;;;;
2020/02/13 18:37:54;;;;;;;12.1;6.5;;;;;;;6.34;65.62402;926.8998;;;;
2020/02/13 18:40:28;;;;;;;16.6;9.8;;;;;;;6.34;67.89844;927.073;;;;
2020/02/13 18:43:11;;;;;;;11.7;5;;;;;;;6.17;67.65625;926.9506;;;;
2020/02/13 18:50:41;;;;;;;10.3;6.2;;;;;;;6.01;67.12207;926.9122;;;;
2020/02/13 18:53:23;;;;;;;16.4;8.1;;;;;;;6.12;67.02637;926.8427;;;;
2020/02/13 18:55:57;;;;;;;10;4.6;;;;;;;6.2;61.96387;927.0037;;;;
2020/02/13 18:58:36;;;;;;;9.1;5.8;;;;;;;6.42;63.95313;927.0786;;;;
2020/02/13 19:01:21;;;;;;;20.4;13.7;;;;;;;6.47;64.54785;927.0377;;;;
2020/02/13 19:03:52;;;;;;;19.6;14.2;;;;;;;6.5;65.16211;927.2712;;;;
2020/02/13 19:06:25;;;;;;;4.8;3;;;;;;;6.39;65.01074;927.5887;;;;
2020/02/13 19:09:28;;;;;;;7.5;3.6;;;;;;;6.37;65.41504;927.7586;;;;
2020/02/13 19:11:51;;;;;;;49.9;13.1;;;;;;;6.41;65.16016;927.9514;;;;
2020/02/13 19:14:24;;;;;;;8.8;4.7;;;;;;;6.57;64.78906;928.1312;;;;
2020/02/13 19:17:27;;;;;;;6;4.4;;;;;;;6.7;65.05664;928.2758;;;;
2020/02/13 19:25:52;;;;;;;10.5;7.7;;;;;;;6.03;66.87598;929.6692;;;;
2020/02/13 19:28:22;;;;;;;6.3;3.9;;;;;;;5.91;63.87598;929.8736;;;;
2020/02/13 19:31:22;;;;;;;8;4.9;;;;;;;6.14;65.48145;930.4331;;;;
2020/02/13 19:33:56;;;;;;;4.9;3.1;;;;;;;6.01;66.36621;930.9585;;;;
2020/02/13 19:36:37;;;;;;;2.4;0.8;;;;;;;6.29;66.96289;931.3501;;;;
2020/02/13 19:39:25;;;;;;;1.2;0.7;;;;;;;6.87;66.13574;931.6259;;;;
2020/02/13 19:41:54;;;;;;;2.5;0.7;;;;;;;6.96;73.46582;931.8328;;;;